sensor_id;sensor_type;location;lat;lon;timestamp;P1;durP1;ratioP1;P2;durP2;ratioP2
19219;SDS011;9744;49.364;7.484;2022-12-07T00:00:51;27.10;;;13.20;;
19219;SDS011;9744;49.364;7.484;2022-12-07T00:03:18;22.15;;;12.20;;
19219;SDS011;9744;49.364;7.484;2022-12-07T00:05:47;22.48;;;11.27;;
19219;SDS011;9744;49.364;7.484;2022-12-07T00:08:14;18.33;;;10.25;;
19219;SDS011;9744;49.364;7.484;2022-12-07T00:10:41;17.80;;;9.15;;
19219;SDS011;9744;49.364;7.484;2022-12-07T00:13:09;24.60;;;9.43;;
19219;SDS011;9744;49.364;7.484;2022-12-07T00:15:36;20.90;;;10.40;;
19219;SDS011;9744;49.364;7.484;2022-12-07T00:18:03;17.85;;;9.80;;
19219;SDS011;9744;49.364;7.484;2022-12-07T00:20:31;20.20;;;10.73;;
19219;SDS011;9744;49.364;7.484;2022-12-07T00:23:00;17.48;;;10.23;;
19219;SDS011;9744;49.364;7.484;2022-12-07T00:25:27;19.17;;;10.25;;
19219;SDS011;9744;49.364;7.484;2022-12-07T00:27:54;16.95;;;9.20;;
19219;SDS011;9744;49.364;7.484;2022-12-07T00:30:22;17.83;;;9.63;;
19219;SDS011;9744;49.364;7.484;2022-12-07T00:32:49;15.38;;;8.57;;
19219;SDS011;9744;49.364;7.484;2022-12-07T00:35:16;18.60;;;9.88;;
19219;SDS011;9744;49.364;7.484;2022-12-07T00:37:44;25.73;;;11.75;;
19219;SDS011;9744;49.364;7.484;2022-12-07T00:40:12;21.20;;;11.23;;
19219;SDS011;9744;49.364;7.484;2022-12-07T00:42:40;17.88;;;10.00;;
19219;SDS011;9744;49.364;7.484;2022-12-07T00:45:07;19.95;;;10.15;;
19219;SDS011;9744;49.364;7.484;2022-12-07T00:47:35;20.95;;;10.63;;
19219;SDS011;9744;49.364;7.484;2022-12-07T00:50:02;22.40;;;11.55;;
19219;SDS011;9744;49.364;7.484;2022-12-07T00:52:30;22.58;;;11.63;;
19219;SDS011;9744;49.364;7.484;2022-12-07T00:54:57;22.65;;;12.27;;
19219;SDS011;9744;49.364;7.484;2022-12-07T00:57:26;24.40;;;11.57;;
19219;SDS011;9744;49.364;7.484;2022-12-07T00:59:53;20.63;;;10.75;;
19219;SDS011;9744;49.364;7.484;2022-12-07T01:02:23;21.10;;;11.98;;
19219;SDS011;9744;49.364;7.484;2022-12-07T01:04:50;22.20;;;13.02;;
19219;SDS011;9744;49.364;7.484;2022-12-07T01:07:17;27.55;;;14.88;;
19219;SDS011;9744;49.364;7.484;2022-12-07T01:09:44;27.30;;;13.68;;
19219;SDS011;9744;49.364;7.484;2022-12-07T01:12:11;28.33;;;14.60;;
19219;SDS011;9744;49.364;7.484;2022-12-07T01:14:41;28.50;;;14.85;;
19219;SDS011;9744;49.364;7.484;2022-12-07T01:17:08;32.00;;;15.70;;
19219;SDS011;9744;49.364;7.484;2022-12-07T01:19:35;27.65;;;14.05;;
19219;SDS011;9744;49.364;7.484;2022-12-07T01:22:02;27.50;;;13.07;;
19219;SDS011;9744;49.364;7.484;2022-12-07T01:24:29;24.65;;;13.10;;
19219;SDS011;9744;49.364;7.484;2022-12-07T01:26:56;26.90;;;13.40;;
19219;SDS011;9744;49.364;7.484;2022-12-07T01:29:24;24.65;;;13.45;;
19219;SDS011;9744;49.364;7.484;2022-12-07T01:31:52;25.67;;;13.10;;
19219;SDS011;9744;49.364;7.484;2022-12-07T01:34:19;25.88;;;13.20;;
19219;SDS011;9744;49.364;7.484;2022-12-07T01:36:46;23.63;;;11.90;;
19219;SDS011;9744;49.364;7.484;2022-12-07T01:39:13;29.10;;;13.43;;
19219;SDS011;9744;49.364;7.484;2022-12-07T01:41:41;25.73;;;13.32;;
19219;SDS011;9744;49.364;7.484;2022-12-07T01:44:16;26.80;;;13.23;;
19219;SDS011;9744;49.364;7.484;2022-12-07T01:46:47;26.08;;;13.15;;
19219;SDS011;9744;49.364;7.484;2022-12-07T01:49:28;27.88;;;13.13;;
19219;SDS011;9744;49.364;7.484;2022-12-07T01:52:01;22.30;;;11.10;;
19219;SDS011;9744;49.364;7.484;2022-12-07T01:54:34;24.52;;;12.43;;
19219;SDS011;9744;49.364;7.484;2022-12-07T01:57:02;24.38;;;12.23;;
19219;SDS011;9744;49.364;7.484;2022-12-07T01:59:31;26.10;;;12.15;;
19219;SDS011;9744;49.364;7.484;2022-12-07T02:01:58;22.67;;;11.93;;
19219;SDS011;9744;49.364;7.484;2022-12-07T02:04:29;21.83;;;11.57;;
19219;SDS011;9744;49.364;7.484;2022-12-07T02:06:57;23.48;;;12.35;;
19219;SDS011;9744;49.364;7.484;2022-12-07T02:09:24;26.05;;;11.73;;
19219;SDS011;9744;49.364;7.484;2022-12-07T02:11:51;26.38;;;13.00;;
19219;SDS011;9744;49.364;7.484;2022-12-07T02:14:19;23.10;;;12.15;;
19219;SDS011;9744;49.364;7.484;2022-12-07T02:16:49;23.15;;;12.25;;
19219;SDS011;9744;49.364;7.484;2022-12-07T02:22:45;25.15;;;12.63;;
19219;SDS011;9744;49.364;7.484;2022-12-07T02:28:56;25.38;;;11.80;;
19219;SDS011;9744;49.364;7.484;2022-12-07T02:31:38;23.33;;;12.07;;
19219;SDS011;9744;49.364;7.484;2022-12-07T02:34:12;24.08;;;12.02;;
19219;SDS011;9744;49.364;7.484;2022-12-07T02:36:47;26.20;;;12.05;;
19219;SDS011;9744;49.364;7.484;2022-12-07T02:39:23;26.58;;;13.55;;
19219;SDS011;9744;49.364;7.484;2022-12-07T02:41:56;24.88;;;12.88;;
19219;SDS011;9744;49.364;7.484;2022-12-07T02:44:29;27.65;;;13.40;;
19219;SDS011;9744;49.364;7.484;2022-12-07T02:46:59;28.45;;;13.90;;
19219;SDS011;9744;49.364;7.484;2022-12-07T02:49:30;27.52;;;13.30;;
19219;SDS011;9744;49.364;7.484;2022-12-07T02:51:57;28.67;;;13.02;;
19219;SDS011;9744;49.364;7.484;2022-12-07T02:54:24;25.65;;;13.60;;
19219;SDS011;9744;49.364;7.484;2022-12-07T02:56:52;30.55;;;14.82;;
19219;SDS011;9744;49.364;7.484;2022-12-07T02:59:32;30.58;;;13.70;;
19219;SDS011;9744;49.364;7.484;2022-12-07T03:02:15;29.05;;;13.75;;
19219;SDS011;9744;49.364;7.484;2022-12-07T03:04:50;26.10;;;13.93;;
19219;SDS011;9744;49.364;7.484;2022-12-07T03:07:28;27.35;;;13.95;;
19219;SDS011;9744;49.364;7.484;2022-12-07T03:10:01;32.83;;;13.90;;
19219;SDS011;9744;49.364;7.484;2022-12-07T03:12:35;33.28;;;15.98;;
19219;SDS011;9744;49.364;7.484;2022-12-07T03:15:12;32.42;;;15.90;;
19219;SDS011;9744;49.364;7.484;2022-12-07T03:17:42;33.10;;;15.38;;
19219;SDS011;9744;49.364;7.484;2022-12-07T03:20:13;31.88;;;14.63;;
19219;SDS011;9744;49.364;7.484;2022-12-07T03:22:42;30.63;;;15.18;;
19219;SDS011;9744;49.364;7.484;2022-12-07T03:25:13;32.40;;;15.75;;
19219;SDS011;9744;49.364;7.484;2022-12-07T03:27:44;36.05;;;16.67;;
19219;SDS011;9744;49.364;7.484;2022-12-07T03:30:19;30.15;;;14.45;;
19219;SDS011;9744;49.364;7.484;2022-12-07T03:32:49;29.15;;;14.65;;
19219;SDS011;9744;49.364;7.484;2022-12-07T03:35:21;30.73;;;15.00;;
19219;SDS011;9744;49.364;7.484;2022-12-07T03:37:54;30.52;;;15.13;;
19219;SDS011;9744;49.364;7.484;2022-12-07T03:40:25;33.88;;;15.10;;
19219;SDS011;9744;49.364;7.484;2022-12-07T03:42:56;31.95;;;15.80;;
19219;SDS011;9744;49.364;7.484;2022-12-07T03:45:29;33.03;;;14.48;;
19219;SDS011;9744;49.364;7.484;2022-12-07T03:48:03;34.92;;;15.63;;
19219;SDS011;9744;49.364;7.484;2022-12-07T03:50:36;39.70;;;16.33;;
19219;SDS011;9744;49.364;7.484;2022-12-07T03:53:15;34.08;;;16.13;;
19219;SDS011;9744;49.364;7.484;2022-12-07T03:55:46;35.13;;;16.30;;
19219;SDS011;9744;49.364;7.484;2022-12-07T03:58:17;33.88;;;16.48;;
19219;SDS011;9744;49.364;7.484;2022-12-07T04:00:47;40.40;;;16.52;;
19219;SDS011;9744;49.364;7.484;2022-12-07T04:03:16;33.55;;;17.42;;
19219;SDS011;9744;49.364;7.484;2022-12-07T04:05:43;43.90;;;16.73;;
19219;SDS011;9744;49.364;7.484;2022-12-07T04:08:11;35.47;;;16.42;;
19219;SDS011;9744;49.364;7.484;2022-12-07T04:10:38;33.25;;;15.52;;
19219;SDS011;9744;49.364;7.484;2022-12-07T04:13:05;35.78;;;18.02;;
19219;SDS011;9744;49.364;7.484;2022-12-07T04:15:32;36.10;;;16.80;;
19219;SDS011;9744;49.364;7.484;2022-12-07T04:18:01;30.27;;;14.18;;
19219;SDS011;9744;49.364;7.484;2022-12-07T04:20:28;31.27;;;15.57;;
19219;SDS011;9744;49.364;7.484;2022-12-07T04:22:55;35.50;;;16.27;;
19219;SDS011;9744;49.364;7.484;2022-12-07T04:25:23;36.78;;;15.43;;
19219;SDS011;9744;49.364;7.484;2022-12-07T04:27:50;37.67;;;16.27;;
19219;SDS011;9744;49.364;7.484;2022-12-07T04:30:18;31.08;;;15.48;;
19219;SDS011;9744;49.364;7.484;2022-12-07T04:32:45;32.30;;;16.50;;
19219;SDS011;9744;49.364;7.484;2022-12-07T04:35:14;32.45;;;15.88;;
19219;SDS011;9744;49.364;7.484;2022-12-07T04:37:41;38.35;;;16.58;;
19219;SDS011;9744;49.364;7.484;2022-12-07T04:40:09;36.38;;;18.15;;
19219;SDS011;9744;49.364;7.484;2022-12-07T04:42:39;36.90;;;18.23;;
19219;SDS011;9744;49.364;7.484;2022-12-07T04:45:07;38.47;;;18.90;;
19219;SDS011;9744;49.364;7.484;2022-12-07T04:47:34;42.55;;;18.25;;
19219;SDS011;9744;49.364;7.484;2022-12-07T04:50:02;45.20;;;19.63;;
19219;SDS011;9744;49.364;7.484;2022-12-07T04:52:31;42.60;;;19.70;;
19219;SDS011;9744;49.364;7.484;2022-12-07T04:54:58;43.78;;;19.92;;
19219;SDS011;9744;49.364;7.484;2022-12-07T04:57:29;45.72;;;19.38;;
19219;SDS011;9744;49.364;7.484;2022-12-07T04:59:56;41.85;;;18.27;;
19219;SDS011;9744;49.364;7.484;2022-12-07T05:02:24;41.78;;;17.92;;
19219;SDS011;9744;49.364;7.484;2022-12-07T05:04:51;37.45;;;17.52;;
19219;SDS011;9744;49.364;7.484;2022-12-07T05:07:18;45.20;;;18.25;;
19219;SDS011;9744;49.364;7.484;2022-12-07T05:09:48;46.53;;;18.00;;
19219;SDS011;9744;49.364;7.484;2022-12-07T05:12:15;41.75;;;18.42;;
19219;SDS011;9744;49.364;7.484;2022-12-07T05:14:42;47.65;;;20.05;;
19219;SDS011;9744;49.364;7.484;2022-12-07T05:17:09;45.72;;;19.77;;
19219;SDS011;9744;49.364;7.484;2022-12-07T05:19:37;43.72;;;19.30;;
19219;SDS011;9744;49.364;7.484;2022-12-07T05:22:04;46.47;;;20.13;;
19219;SDS011;9744;49.364;7.484;2022-12-07T05:24:31;45.10;;;19.15;;
19219;SDS011;9744;49.364;7.484;2022-12-07T05:27:00;51.95;;;21.45;;
19219;SDS011;9744;49.364;7.484;2022-12-07T05:29:27;48.92;;;20.52;;
19219;SDS011;9744;49.364;7.484;2022-12-07T05:31:54;48.08;;;20.42;;
19219;SDS011;9744;49.364;7.484;2022-12-07T05:34:21;49.30;;;21.15;;
19219;SDS011;9744;49.364;7.484;2022-12-07T05:36:48;42.25;;;20.23;;
19219;SDS011;9744;49.364;7.484;2022-12-07T05:39:15;46.20;;;19.75;;
19219;SDS011;9744;49.364;7.484;2022-12-07T05:41:43;46.83;;;20.85;;
19219;SDS011;9744;49.364;7.484;2022-12-07T05:44:29;44.22;;;20.33;;
19219;SDS011;9744;49.364;7.484;2022-12-07T05:46:56;47.50;;;20.25;;
19219;SDS011;9744;49.364;7.484;2022-12-07T05:49:23;58.58;;;22.13;;
19219;SDS011;9744;49.364;7.484;2022-12-07T05:51:50;68.43;;;26.52;;
19219;SDS011;9744;49.364;7.484;2022-12-07T05:54:17;45.97;;;21.42;;
19219;SDS011;9744;49.364;7.484;2022-12-07T05:56:44;50.95;;;21.50;;
19219;SDS011;9744;49.364;7.484;2022-12-07T05:59:12;50.42;;;21.02;;
19219;SDS011;9744;49.364;7.484;2022-12-07T06:01:54;56.58;;;21.75;;
19219;SDS011;9744;49.364;7.484;2022-12-07T06:04:23;47.13;;;20.98;;
19219;SDS011;9744;49.364;7.484;2022-12-07T06:06:51;51.05;;;21.35;;
19219;SDS011;9744;49.364;7.484;2022-12-07T06:09:19;56.17;;;21.08;;
19219;SDS011;9744;49.364;7.484;2022-12-07T06:11:47;53.40;;;23.55;;
19219;SDS011;9744;49.364;7.484;2022-12-07T06:14:32;55.60;;;23.48;;
19219;SDS011;9744;49.364;7.484;2022-12-07T06:17:01;67.82;;;30.23;;
19219;SDS011;9744;49.364;7.484;2022-12-07T06:19:29;54.50;;;23.27;;
19219;SDS011;9744;49.364;7.484;2022-12-07T06:21:56;50.00;;;22.60;;
19219;SDS011;9744;49.364;7.484;2022-12-07T06:24:23;68.47;;;27.20;;
19219;SDS011;9744;49.364;7.484;2022-12-07T06:26:51;64.78;;;27.10;;
19219;SDS011;9744;49.364;7.484;2022-12-07T06:29:18;67.30;;;28.23;;
19219;SDS011;9744;49.364;7.484;2022-12-07T06:31:45;85.30;;;35.00;;
19219;SDS011;9744;49.364;7.484;2022-12-07T06:34:15;68.40;;;26.23;;
19219;SDS011;9744;49.364;7.484;2022-12-07T06:36:44;90.68;;;36.63;;
19219;SDS011;9744;49.364;7.484;2022-12-07T06:39:16;59.72;;;25.08;;
19219;SDS011;9744;49.364;7.484;2022-12-07T06:41:43;60.88;;;26.25;;
19219;SDS011;9744;49.364;7.484;2022-12-07T06:44:11;58.40;;;24.42;;
19219;SDS011;9744;49.364;7.484;2022-12-07T06:46:38;62.75;;;25.08;;
19219;SDS011;9744;49.364;7.484;2022-12-07T06:49:05;60.50;;;27.00;;
19219;SDS011;9744;49.364;7.484;2022-12-07T06:51:34;56.42;;;24.10;;
19219;SDS011;9744;49.364;7.484;2022-12-07T06:54:06;64.28;;;23.92;;
19219;SDS011;9744;49.364;7.484;2022-12-07T06:56:33;57.22;;;24.58;;
19219;SDS011;9744;49.364;7.484;2022-12-07T06:59:00;71.38;;;28.42;;
19219;SDS011;9744;49.364;7.484;2022-12-07T07:01:28;53.05;;;22.48;;
19219;SDS011;9744;49.364;7.484;2022-12-07T07:03:55;54.03;;;22.83;;
19219;SDS011;9744;49.364;7.484;2022-12-07T07:06:22;45.40;;;20.52;;
19219;SDS011;9744;49.364;7.484;2022-12-07T07:08:51;46.83;;;20.50;;
19219;SDS011;9744;49.364;7.484;2022-12-07T07:11:18;48.53;;;22.05;;
19219;SDS011;9744;49.364;7.484;2022-12-07T07:13:45;48.72;;;21.70;;
19219;SDS011;9744;49.364;7.484;2022-12-07T07:16:14;52.65;;;22.27;;
19219;SDS011;9744;49.364;7.484;2022-12-07T07:18:41;55.00;;;22.23;;
19219;SDS011;9744;49.364;7.484;2022-12-07T07:21:08;52.88;;;22.25;;
19219;SDS011;9744;49.364;7.484;2022-12-07T07:23:35;52.05;;;23.67;;
19219;SDS011;9744;49.364;7.484;2022-12-07T07:26:04;52.28;;;23.17;;
19219;SDS011;9744;49.364;7.484;2022-12-07T07:28:31;56.15;;;25.60;;
19219;SDS011;9744;49.364;7.484;2022-12-07T07:30:58;53.08;;;22.30;;
19219;SDS011;9744;49.364;7.484;2022-12-07T07:33:25;50.33;;;21.52;;
19219;SDS011;9744;49.364;7.484;2022-12-07T07:35:52;52.80;;;23.60;;
19219;SDS011;9744;49.364;7.484;2022-12-07T07:38:19;54.38;;;22.55;;
19219;SDS011;9744;49.364;7.484;2022-12-07T07:40:46;52.35;;;23.33;;
19219;SDS011;9744;49.364;7.484;2022-12-07T07:43:15;56.40;;;23.30;;
19219;SDS011;9744;49.364;7.484;2022-12-07T07:45:42;51.13;;;23.10;;
19219;SDS011;9744;49.364;7.484;2022-12-07T07:48:10;61.75;;;24.25;;
19219;SDS011;9744;49.364;7.484;2022-12-07T07:50:37;63.70;;;24.45;;
19219;SDS011;9744;49.364;7.484;2022-12-07T07:53:04;62.60;;;23.52;;
19219;SDS011;9744;49.364;7.484;2022-12-07T07:55:31;59.35;;;23.27;;
19219;SDS011;9744;49.364;7.484;2022-12-07T07:57:58;58.88;;;23.73;;
19219;SDS011;9744;49.364;7.484;2022-12-07T08:00:27;63.15;;;25.08;;
19219;SDS011;9744;49.364;7.484;2022-12-07T08:02:54;73.63;;;25.65;;
19219;SDS011;9744;49.364;7.484;2022-12-07T08:05:21;60.63;;;24.95;;
19219;SDS011;9744;49.364;7.484;2022-12-07T08:07:48;76.40;;;28.02;;
19219;SDS011;9744;49.364;7.484;2022-12-07T08:10:15;91.60;;;37.47;;
19219;SDS011;9744;49.364;7.484;2022-12-07T08:12:43;68.53;;;27.08;;
19219;SDS011;9744;49.364;7.484;2022-12-07T08:15:29;65.53;;;25.83;;
19219;SDS011;9744;49.364;7.484;2022-12-07T08:17:57;61.53;;;26.05;;
19219;SDS011;9744;49.364;7.484;2022-12-07T08:20:24;60.30;;;24.02;;
19219;SDS011;9744;49.364;7.484;2022-12-07T08:22:52;55.60;;;23.73;;
19219;SDS011;9744;49.364;7.484;2022-12-07T08:25:19;61.90;;;24.80;;
19219;SDS011;9744;49.364;7.484;2022-12-07T08:27:47;55.60;;;24.40;;
19219;SDS011;9744;49.364;7.484;2022-12-07T08:30:14;51.83;;;22.98;;
19219;SDS011;9744;49.364;7.484;2022-12-07T08:32:43;55.97;;;23.00;;
19219;SDS011;9744;49.364;7.484;2022-12-07T08:35:11;53.45;;;20.63;;
19219;SDS011;9744;49.364;7.484;2022-12-07T08:37:39;55.97;;;22.02;;
19219;SDS011;9744;49.364;7.484;2022-12-07T08:40:07;49.70;;;20.70;;
19219;SDS011;9744;49.364;7.484;2022-12-07T08:42:36;52.72;;;22.20;;
19219;SDS011;9744;49.364;7.484;2022-12-07T08:45:06;51.97;;;21.02;;
19219;SDS011;9744;49.364;7.484;2022-12-07T08:47:35;56.97;;;23.00;;
19219;SDS011;9744;49.364;7.484;2022-12-07T08:50:08;69.57;;;24.35;;
19219;SDS011;9744;49.364;7.484;2022-12-07T08:52:37;58.10;;;24.05;;
19219;SDS011;9744;49.364;7.484;2022-12-07T08:55:06;52.50;;;23.60;;
19219;SDS011;9744;49.364;7.484;2022-12-07T08:57:35;57.42;;;23.73;;
19219;SDS011;9744;49.364;7.484;2022-12-07T09:00:04;57.15;;;23.95;;
19219;SDS011;9744;49.364;7.484;2022-12-07T09:02:32;58.40;;;23.48;;
19219;SDS011;9744;49.364;7.484;2022-12-07T09:04:59;59.65;;;24.98;;
19219;SDS011;9744;49.364;7.484;2022-12-07T09:07:29;62.05;;;24.75;;
19219;SDS011;9744;49.364;7.484;2022-12-07T09:09:58;61.38;;;26.13;;
19219;SDS011;9744;49.364;7.484;2022-12-07T09:12:25;56.42;;;24.02;;
19219;SDS011;9744;49.364;7.484;2022-12-07T09:14:52;57.08;;;22.85;;
19219;SDS011;9744;49.364;7.484;2022-12-07T09:17:19;56.30;;;23.08;;
19219;SDS011;9744;49.364;7.484;2022-12-07T09:19:46;63.05;;;24.30;;
19219;SDS011;9744;49.364;7.484;2022-12-07T09:22:14;66.47;;;27.00;;
19219;SDS011;9744;49.364;7.484;2022-12-07T09:24:42;63.53;;;24.42;;
19219;SDS011;9744;49.364;7.484;2022-12-07T09:27:10;60.50;;;23.88;;
19219;SDS011;9744;49.364;7.484;2022-12-07T09:29:38;63.78;;;23.65;;
19219;SDS011;9744;49.364;7.484;2022-12-07T09:32:05;63.45;;;23.85;;
19219;SDS011;9744;49.364;7.484;2022-12-07T09:34:32;67.28;;;24.42;;
19219;SDS011;9744;49.364;7.484;2022-12-07T09:37:00;57.45;;;22.70;;
19219;SDS011;9744;49.364;7.484;2022-12-07T09:39:29;60.45;;;23.60;;
19219;SDS011;9744;49.364;7.484;2022-12-07T09:41:57;58.80;;;24.00;;
19219;SDS011;9744;49.364;7.484;2022-12-07T09:44:27;51.08;;;22.33;;
19219;SDS011;9744;49.364;7.484;2022-12-07T09:46:54;55.78;;;24.60;;
19219;SDS011;9744;49.364;7.484;2022-12-07T09:49:22;58.30;;;23.15;;
19219;SDS011;9744;49.364;7.484;2022-12-07T09:51:59;61.88;;;24.50;;
19219;SDS011;9744;49.364;7.484;2022-12-07T09:54:28;54.65;;;23.27;;
19219;SDS011;9744;49.364;7.484;2022-12-07T09:56:58;53.25;;;22.23;;
19219;SDS011;9744;49.364;7.484;2022-12-07T09:59:27;60.03;;;24.60;;
19219;SDS011;9744;49.364;7.484;2022-12-07T10:01:54;63.15;;;25.05;;
19219;SDS011;9744;49.364;7.484;2022-12-07T10:04:22;58.65;;;23.38;;
19219;SDS011;9744;49.364;7.484;2022-12-07T10:06:52;61.58;;;26.00;;
19219;SDS011;9744;49.364;7.484;2022-12-07T10:09:19;64.85;;;25.58;;
19219;SDS011;9744;49.364;7.484;2022-12-07T10:12:03;56.88;;;25.10;;
19219;SDS011;9744;49.364;7.484;2022-12-07T10:14:32;63.45;;;24.65;;
19219;SDS011;9744;49.364;7.484;2022-12-07T10:17:01;60.75;;;24.52;;
19219;SDS011;9744;49.364;7.484;2022-12-07T10:19:28;64.57;;;24.55;;
19219;SDS011;9744;49.364;7.484;2022-12-07T10:24:43;50.65;;;22.08;;
19219;SDS011;9744;49.364;7.484;2022-12-07T10:27:21;55.42;;;23.58;;
19219;SDS011;9744;49.364;7.484;2022-12-07T10:29:52;49.03;;;22.75;;
19219;SDS011;9744;49.364;7.484;2022-12-07T10:32:28;50.20;;;22.17;;
19219;SDS011;9744;49.364;7.484;2022-12-07T10:35:16;48.05;;;21.52;;
19219;SDS011;9744;49.364;7.484;2022-12-07T10:37:47;49.80;;;21.40;;
19219;SDS011;9744;49.364;7.484;2022-12-07T10:40:26;50.40;;;21.55;;
19219;SDS011;9744;49.364;7.484;2022-12-07T10:43:17;47.22;;;20.25;;
19219;SDS011;9744;49.364;7.484;2022-12-07T10:45:57;43.95;;;20.75;;
19219;SDS011;9744;49.364;7.484;2022-12-07T10:48:37;43.47;;;19.48;;
19219;SDS011;9744;49.364;7.484;2022-12-07T10:51:14;41.97;;;19.92;;
19219;SDS011;9744;49.364;7.484;2022-12-07T10:53:47;39.22;;;18.92;;
19219;SDS011;9744;49.364;7.484;2022-12-07T10:56:27;43.72;;;19.52;;
19219;SDS011;9744;49.364;7.484;2022-12-07T10:59:12;43.88;;;20.77;;
19219;SDS011;9744;49.364;7.484;2022-12-07T11:01:54;55.08;;;25.42;;
19219;SDS011;9744;49.364;7.484;2022-12-07T11:04:30;44.50;;;22.58;;
19219;SDS011;9744;49.364;7.484;2022-12-07T11:07:04;36.80;;;17.45;;
19219;SDS011;9744;49.364;7.484;2022-12-07T11:12:27;42.72;;;21.63;;
19219;SDS011;9744;49.364;7.484;2022-12-07T11:15:08;42.70;;;19.02;;
19219;SDS011;9744;49.364;7.484;2022-12-07T11:17:43;36.50;;;16.20;;
19219;SDS011;9744;49.364;7.484;2022-12-07T11:20:22;36.25;;;16.35;;
19219;SDS011;9744;49.364;7.484;2022-12-07T11:23:04;47.05;;;21.55;;
19219;SDS011;9744;49.364;7.484;2022-12-07T11:25:48;34.13;;;16.45;;
19219;SDS011;9744;49.364;7.484;2022-12-07T11:28:28;38.10;;;17.40;;
19219;SDS011;9744;49.364;7.484;2022-12-07T11:31:10;34.83;;;16.42;;
19219;SDS011;9744;49.364;7.484;2022-12-07T11:33:46;39.65;;;17.25;;
19219;SDS011;9744;49.364;7.484;2022-12-07T11:36:22;38.40;;;16.17;;
19219;SDS011;9744;49.364;7.484;2022-12-07T11:39:04;40.00;;;19.25;;
19219;SDS011;9744;49.364;7.484;2022-12-07T11:41:41;30.73;;;15.13;;
19219;SDS011;9744;49.364;7.484;2022-12-07T11:44:22;37.30;;;17.70;;
19219;SDS011;9744;49.364;7.484;2022-12-07T11:47:00;38.40;;;18.40;;
19219;SDS011;9744;49.364;7.484;2022-12-07T11:49:37;36.28;;;17.63;;
19219;SDS011;9744;49.364;7.484;2022-12-07T11:52:11;35.67;;;17.17;;
19219;SDS011;9744;49.364;7.484;2022-12-07T11:54:44;116.03;;;45.78;;
19219;SDS011;9744;49.364;7.484;2022-12-07T11:57:15;39.17;;;18.33;;
19219;SDS011;9744;49.364;7.484;2022-12-07T11:59:47;40.78;;;18.58;;
19219;SDS011;9744;49.364;7.484;2022-12-07T12:02:20;36.17;;;17.10;;
19219;SDS011;9744;49.364;7.484;2022-12-07T12:04:54;36.08;;;18.38;;
19219;SDS011;9744;49.364;7.484;2022-12-07T12:07:26;35.83;;;17.10;;
19219;SDS011;9744;49.364;7.484;2022-12-07T12:09:55;32.42;;;15.65;;
19219;SDS011;9744;49.364;7.484;2022-12-07T12:15:39;36.63;;;17.42;;
19219;SDS011;9744;49.364;7.484;2022-12-07T12:18:39;37.08;;;15.95;;
19219;SDS011;9744;49.364;7.484;2022-12-07T12:21:30;34.90;;;16.67;;
19219;SDS011;9744;49.364;7.484;2022-12-07T12:23:58;36.80;;;16.70;;
19219;SDS011;9744;49.364;7.484;2022-12-07T12:26:29;38.78;;;17.38;;
19219;SDS011;9744;49.364;7.484;2022-12-07T12:28:59;35.40;;;16.77;;
19219;SDS011;9744;49.364;7.484;2022-12-07T12:31:31;65.78;;;32.60;;
19219;SDS011;9744;49.364;7.484;2022-12-07T12:34:04;41.85;;;19.38;;
19219;SDS011;9744;49.364;7.484;2022-12-07T12:36:46;41.40;;;19.65;;
19219;SDS011;9744;49.364;7.484;2022-12-07T12:39:15;42.20;;;18.65;;
19219;SDS011;9744;49.364;7.484;2022-12-07T12:41:54;26.15;;;13.52;;
19219;SDS011;9744;49.364;7.484;2022-12-07T12:44:41;23.42;;;12.52;;
19219;SDS011;9744;49.364;7.484;2022-12-07T12:47:39;24.48;;;11.48;;
19219;SDS011;9744;49.364;7.484;2022-12-07T12:50:33;27.63;;;12.35;;
19219;SDS011;9744;49.364;7.484;2022-12-07T12:53:02;40.65;;;18.02;;
19219;SDS011;9744;49.364;7.484;2022-12-07T12:58:41;21.70;;;10.45;;
19219;SDS011;9744;49.364;7.484;2022-12-07T13:04:26;18.58;;;10.02;;
19219;SDS011;9744;49.364;7.484;2022-12-07T13:07:11;24.73;;;11.35;;
19219;SDS011;9744;49.364;7.484;2022-12-07T13:09:42;21.85;;;9.20;;
19219;SDS011;9744;49.364;7.484;2022-12-07T13:12:12;18.60;;;10.05;;
19219;SDS011;9744;49.364;7.484;2022-12-07T13:14:43;22.88;;;11.15;;
19219;SDS011;9744;49.364;7.484;2022-12-07T13:20:43;18.83;;;10.32;;
19219;SDS011;9744;49.364;7.484;2022-12-07T13:23:18;20.77;;;10.13;;
19219;SDS011;9744;49.364;7.484;2022-12-07T13:28:41;24.38;;;11.40;;
19219;SDS011;9744;49.364;7.484;2022-12-07T13:31:14;24.88;;;11.57;;
19219;SDS011;9744;49.364;7.484;2022-12-07T13:33:50;19.05;;;10.23;;
19219;SDS011;9744;49.364;7.484;2022-12-07T13:36:20;20.65;;;11.88;;
19219;SDS011;9744;49.364;7.484;2022-12-07T13:38:55;29.25;;;12.07;;
19219;SDS011;9744;49.364;7.484;2022-12-07T13:41:24;28.10;;;13.25;;
19219;SDS011;9744;49.364;7.484;2022-12-07T13:44:00;28.80;;;13.57;;
19219;SDS011;9744;49.364;7.484;2022-12-07T13:46:35;29.27;;;13.50;;
19219;SDS011;9744;49.364;7.484;2022-12-07T13:49:21;26.25;;;12.80;;
19219;SDS011;9744;49.364;7.484;2022-12-07T13:51:50;27.15;;;13.27;;
19219;SDS011;9744;49.364;7.484;2022-12-07T13:54:19;27.63;;;12.15;;
19219;SDS011;9744;49.364;7.484;2022-12-07T13:56:47;20.38;;;12.00;;
19219;SDS011;9744;49.364;7.484;2022-12-07T13:59:18;27.70;;;14.43;;
19219;SDS011;9744;49.364;7.484;2022-12-07T14:01:48;27.02;;;13.48;;
19219;SDS011;9744;49.364;7.484;2022-12-07T14:04:17;30.33;;;13.98;;
19219;SDS011;9744;49.364;7.484;2022-12-07T14:06:49;26.00;;;12.85;;
19219;SDS011;9744;49.364;7.484;2022-12-07T14:09:19;24.75;;;12.85;;
19219;SDS011;9744;49.364;7.484;2022-12-07T14:11:49;18.98;;;10.02;;
19219;SDS011;9744;49.364;7.484;2022-12-07T14:14:19;22.40;;;10.95;;
19219;SDS011;9744;49.364;7.484;2022-12-07T14:16:55;23.33;;;11.07;;
19219;SDS011;9744;49.364;7.484;2022-12-07T14:22:25;23.58;;;11.43;;
19219;SDS011;9744;49.364;7.484;2022-12-07T14:25:09;22.02;;;11.48;;
19219;SDS011;9744;49.364;7.484;2022-12-07T14:27:48;20.15;;;9.77;;
19219;SDS011;9744;49.364;7.484;2022-12-07T14:30:22;19.42;;;10.13;;
19219;SDS011;9744;49.364;7.484;2022-12-07T14:32:52;21.98;;;10.10;;
19219;SDS011;9744;49.364;7.484;2022-12-07T14:35:20;21.60;;;9.60;;
19219;SDS011;9744;49.364;7.484;2022-12-07T14:37:48;16.23;;;8.50;;
19219;SDS011;9744;49.364;7.484;2022-12-07T14:40:18;13.15;;;7.82;;
19219;SDS011;9744;49.364;7.484;2022-12-07T14:42:47;11.45;;;7.22;;
19219;SDS011;9744;49.364;7.484;2022-12-07T14:45:18;17.75;;;7.70;;
19219;SDS011;9744;49.364;7.484;2022-12-07T14:47:47;15.57;;;7.78;;
19219;SDS011;9744;49.364;7.484;2022-12-07T14:50:15;14.73;;;8.10;;
19219;SDS011;9744;49.364;7.484;2022-12-07T14:52:45;16.98;;;8.98;;
19219;SDS011;9744;49.364;7.484;2022-12-07T14:55:16;17.00;;;8.93;;
19219;SDS011;9744;49.364;7.484;2022-12-07T14:57:49;15.57;;;8.40;;
19219;SDS011;9744;49.364;7.484;2022-12-07T15:00:16;15.30;;;8.75;;
19219;SDS011;9744;49.364;7.484;2022-12-07T15:02:45;20.05;;;9.95;;
19219;SDS011;9744;49.364;7.484;2022-12-07T15:05:14;32.70;;;14.52;;
19219;SDS011;9744;49.364;7.484;2022-12-07T15:07:41;23.85;;;12.43;;
19219;SDS011;9744;49.364;7.484;2022-12-07T15:10:14;16.85;;;9.30;;
19219;SDS011;9744;49.364;7.484;2022-12-07T15:12:45;19.52;;;9.75;;
19219;SDS011;9744;49.364;7.484;2022-12-07T15:15:12;21.55;;;10.95;;
19219;SDS011;9744;49.364;7.484;2022-12-07T15:17:40;17.77;;;9.63;;
19219;SDS011;9744;49.364;7.484;2022-12-07T15:20:08;18.15;;;8.90;;
19219;SDS011;9744;49.364;7.484;2022-12-07T15:22:38;15.20;;;8.68;;
19219;SDS011;9744;49.364;7.484;2022-12-07T15:25:06;19.95;;;10.07;;
19219;SDS011;9744;49.364;7.484;2022-12-07T15:27:34;18.95;;;9.52;;